Time;durP1;ratioP1;P1;durP2;ratioP2;P2;SDS_P1;SDS_P2;PMS_P1;PMS_P2;Temp;Humidity;BMP_temperature;BMP_pressure;BME280_temperature;BME280_humidity;BME280_pressure;Samples;Min_cycle;Max_cycle;Signal;HPM_P1;HPM_P2
2021/05/30 00:01:30;;;;;;;5.90;4.35;;;;;;;14.41;94.47;100515.63;1633934;86;21149;-64
2021/05/30 00:03:57;;;;;;;8.28;5.30;;;;;;;14.39;94.83;100510.80;1633878;87;21173;-64
2021/05/30 00:06:29;;;;;;;14.25;6.50;;;;;;;14.36;94.92;100512.33;1653487;85;21621;-63
2021/05/30 00:08:55;;;;;;;8.48;5.65;;;;;;;14.36;94.99;100512.33;1660678;84;21855;-64
2021/05/30 00:11:22;;;;;;;9.80;6.83;;;;;;;14.33;95.24;100508.84;1662836;85;21246;-61
2021/05/30 00:13:52;;;;;;;9.85;5.65;;;;;;;14.32;95.43;100512.50;1668252;84;20997;-63
2021/05/30 00:16:18;;;;;;;7.45;5.35;;;;;;;14.30;95.67;100512.17;1636500;85;21733;-64
2021/05/30 00:18:46;;;;;;;9.63;5.87;;;;;;;14.30;95.88;100516.22;1634327;87;21523;-64
2021/05/30 00:21:12;;;;;;;13.72;5.50;;;;;;;14.29;95.98;100514.48;1634246;87;21656;-62
2021/05/30 00:23:39;;;;;;;7.40;4.22;;;;;;;14.28;96.12;100521.72;1636255;86;21137;-63
2021/05/30 00:26:05;;;;;;;5.72;3.75;;;;;;;14.27;96.27;100518.63;1633863;87;21094;-68
2021/05/30 00:28:34;;;;;;;5.72;2.98;;;;;;;14.26;96.25;100517.34;1647156;85;21119;-67
2021/05/30 00:31:01;;;;;;;4.30;3.17;;;;;;;14.25;96.40;100523.20;1666960;84;21353;-68
2021/05/30 00:33:27;;;;;;;6.30;3.67;;;;;;;14.24;96.44;100521.95;1666990;85;21113;-68
2021/05/30 00:35:54;;;;;;;6.08;3.30;;;;;;;14.21;96.72;100516.23;1666764;84;21141;-68
2021/05/30 00:38:20;;;;;;;3.98;3.20;;;;;;;14.19;96.69;100516.80;1666951;84;21136;-66
2021/05/30 00:40:50;;;;;;;4.35;3.60;;;;;;;14.19;96.80;100520.84;1666709;84;21197;-66
2021/05/30 00:43:18;;;;;;;5.62;3.52;;;;;;;14.17;96.64;100524.11;1666377;84;21630;-67
2021/05/30 00:45:47;;;;;;;3.10;2.80;;;;;;;14.15;96.66;100521.51;1634169;86;21212;-67
2021/05/30 00:48:14;;;;;;;3.65;2.77;;;;;;;14.13;96.54;100523.39;1633938;86;21148;-67
2021/05/30 00:50:41;;;;;;;4.83;2.83;;;;;;;14.11;96.56;100529.83;1634217;86;21193;-66
2021/05/30 00:53:08;;;;;;;4.30;2.62;;;;;;;14.06;96.66;100531.91;1649792;86;21093;-68
2021/05/30 00:55:35;;;;;;;5.45;2.70;;;;;;;14.04;96.97;100530.63;1662605;84;21140;-67
2021/05/30 00:58:01;;;;;;;6.05;2.80;;;;;;;14.04;96.99;100536.91;1662054;84;21190;-63
2021/05/30 01:00:28;;;;;;;4.50;2.65;;;;;;;14.02;96.89;100539.28;1662377;86;21170;-64
2021/05/30 01:02:54;;;;;;;4.45;2.75;;;;;;;14.02;96.77;100537.93;1662419;84;21635;-64
2021/05/30 01:05:24;;;;;;;3.27;2.45;;;;;;;14.00;96.53;100539.34;1653241;84;21160;-63
2021/05/30 01:07:51;;;;;;;4.65;2.47;;;;;;;13.98;96.34;100543.09;1630632;86;21168;-63
2021/05/30 01:10:32;;;;;;;3.60;2.50;;;;;;;13.94;96.18;100541.02;1630640;86;21183;-64
2021/05/30 01:12:59;;;;;;;6.72;2.45;;;;;;;13.89;96.07;100552.03;1660920;85;21182;-63
2021/05/30 01:15:31;;;;;;;3.22;2.10;;;;;;;13.87;96.13;100550.39;1635220;87;21507;-63
2021/05/30 01:17:58;;;;;;;5.83;2.47;;;;;;;13.83;96.20;100552.86;1634804;86;21053;-63
2021/05/30 01:20:27;;;;;;;4.30;2.37;;;;;;;13.81;96.26;100558.77;1634493;87;21154;-63
2021/05/30 01:22:54;;;;;;;7.45;2.45;;;;;;;13.78;96.37;100549.50;1634153;86;21234;-64
2021/05/30 01:25:23;;;;;;;6.50;3.33;;;;;;;13.74;96.34;100556.41;1634139;87;21185;-64
2021/05/30 01:27:51;;;;;;;4.92;2.83;;;;;;;13.71;96.53;100547.62;1638151;85;21054;-62
2021/05/30 01:30:21;;;;;;;7.08;2.77;;;;;;;13.69;96.66;100551.73;1667331;85;21149;-64
2021/05/30 01:32:49;;;;;;;6.15;3.60;;;;;;;13.65;96.73;100538.03;1667610;84;21547;-64
2021/05/30 01:35:16;;;;;;;8.58;4.72;;;;;;;13.63;96.99;100532.31;1668763;84;21650;-62
2021/05/30 01:37:44;;;;;;;9.95;5.62;;;;;;;13.60;97.22;100523.45;1667274;84;21125;-64
2021/05/30 01:40:12;;;;;;;9.20;5.62;;;;;;;13.60;97.57;100518.55;1667659;84;21113;-63
2021/05/30 01:42:39;;;;;;;14.55;8.20;;;;;;;13.59;97.63;100510.04;1667861;84;21065;-62
2021/05/30 01:45:08;;;;;;;8.75;5.33;;;;;;;13.58;97.60;100515.92;1637996;85;21485;-64
2021/05/30 01:47:41;;;;;;;9.00;5.40;;;;;;;13.58;97.75;100521.77;1607741;87;22330;-62
2021/05/30 01:50:13;;;;;;;7.47;4.50;;;;;;;13.58;97.97;100525.80;1634318;86;21129;-62
2021/05/30 01:52:40;;;;;;;4.65;3.25;;;;;;;13.59;97.94;100526.20;1634945;86;21582;-64
2021/05/30 01:55:22;;;;;;;3.58;2.90;;;;;;;13.58;97.90;100530.73;1633742;85;21188;-63
2021/05/30 01:57:47;;;;;;;5.78;2.72;;;;;;;13.54;97.92;100529.16;1629919;87;21033;-63
2021/05/30 02:00:16;;;;;;;5.60;3.30;;;;;;;13.52;97.87;100539.59;1631299;87;21140;-62
2021/05/30 02:02:44;;;;;;;5.72;2.87;;;;;;;13.48;98.30;100540.22;1630731;86;21150;-63
2021/05/30 02:05:12;;;;;;;10.08;2.90;;;;;;;13.46;98.50;100541.66;1638441;86;21329;-63
2021/05/30 02:07:42;;;;;;;5.45;3.08;;;;;;;13.46;98.55;100537.62;1661919;86;21079;-62
2021/05/30 02:10:12;;;;;;;6.00;3.40;;;;;;;13.45;98.66;100534.53;1631910;87;21188;-62
2021/05/30 02:12:41;;;;;;;5.00;3.35;;;;;;;13.45;98.90;100539.92;1664318;85;21831;-63
2021/05/30 02:15:11;;;;;;;4.58;3.00;;;;;;;13.49;99.06;100541.10;1662167;84;21129;-63
2021/05/30 02:17:37;;;;;;;5.97;3.67;;;;;;;13.51;98.99;100540.55;1663752;84;21029;-63
2021/05/30 02:20:06;;;;;;;6.70;3.77;;;;;;;13.54;98.79;100547.12;1662510;84;21165;-62
2021/05/30 02:22:33;;;;;;;6.90;3.27;;;;;;;13.58;98.79;100544.66;1662866;84;21178;-63
2021/05/30 02:25:00;;;;;;;8.78;3.17;;;;;;;13.64;98.48;100547.06;1662645;84;21172;-63
2021/05/30 02:27:26;;;;;;;6.90;2.95;;;;;;;13.69;98.19;100549.04;1662637;84;21129;-63
2021/05/30 02:29:54;;;;;;;8.55;2.90;;;;;;;13.78;97.80;100553.55;1662518;84;21153;-63
2021/05/30 02:32:21;;;;;;;5.83;2.77;;;;;;;13.80;97.13;100540.86;1662525;84;21170;-63
2021/05/30 02:34:49;;;;;;;4.33;2.77;;;;;;;13.84;96.87;100546.02;1662631;84;21125;-63
2021/05/30 02:37:16;;;;;;;3.72;2.58;;;;;;;13.92;96.33;100551.02;1662820;86;21140;-63
2021/05/30 02:39:43;;;;;;;10.78;3.12;;;;;;;13.98;95.72;100553.88;1662759;84;20970;-63
2021/05/30 02:42:10;;;;;;;9.60;3.15;;;;;;;14.00;95.00;100558.21;1661215;85;21090;-61
2021/05/30 02:44:37;;;;;;;8.63;3.58;;;;;;;14.02;94.69;100561.70;1658873;85;21158;-65
2021/05/30 02:47:04;;;;;;;7.17;3.35;;;;;;;14.06;94.39;100564.26;1658051;85;21177;-67
2021/05/30 02:49:33;;;;;;;4.33;2.92;;;;;;;14.10;94.00;100572.57;1632196;86;21623;-65
2021/05/30 02:52:02;;;;;;;7.90;2.80;;;;;;;14.12;93.61;100579.61;1631963;87;21134;-67
2021/05/30 02:54:28;;;;;;;5.75;2.75;;;;;;;14.18;93.17;100573.03;1643592;86;21049;-65
2021/05/30 02:56:55;;;;;;;6.92;2.60;;;;;;;14.22;92.68;100572.40;1665532;86;21705;-65
2021/05/30 02:59:22;;;;;;;4.40;2.80;;;;;;;14.29;92.12;100574.69;1665774;86;21089;-66
2021/05/30 03:01:48;;;;;;;5.72;2.70;;;;;;;14.33;91.74;100572.68;1640235;86;21226;-66
2021/05/30 03:04:15;;;;;;;5.67;2.70;;;;;;;14.42;91.27;100567.27;1633428;86;21163;-67
2021/05/30 03:06:41;;;;;;;3.52;2.50;;;;;;;14.47;90.67;100569.23;1639642;86;21105;-66
2021/05/30 03:09:08;;;;;;;7.37;2.70;;;;;;;14.48;90.44;100571.01;1660759;85;21150;-65
2021/05/30 03:11:35;;;;;;;4.05;2.72;;;;;;;14.54;90.25;100577.41;1662595;84;21108;-66
2021/05/30 03:14:04;;;;;;;6.35;3.27;;;;;;;14.59;89.99;100580.72;1665568;84;21220;-68
2021/05/30 03:16:31;;;;;;;5.90;3.60;;;;;;;14.66;89.73;100579.02;1660695;86;21102;-67
2021/05/30 03:18:57;;;;;;;6.28;3.42;;;;;;;14.70;89.24;100574.73;1660664;84;21089;-67
2021/05/30 03:21:24;;;;;;;4.28;2.95;;;;;;;14.73;89.03;100579.98;1660682;85;21110;-68
2021/05/30 03:23:51;;;;;;;5.40;3.00;;;;;;;14.77;88.90;100584.75;1660413;85;21110;-67
2021/05/30 03:26:19;;;;;;;3.98;2.60;;;;;;;14.84;88.69;100575.34;1660875;84;21165;-69
2021/05/30 03:28:48;;;;;;;5.92;2.72;;;;;;;14.93;88.36;100581.20;1660585;85;21740;-66
2021/05/30 03:31:14;;;;;;;5.78;3.20;;;;;;;15.01;87.88;100577.58;1660579;85;21589;-67
2021/05/30 03:33:41;;;;;;;4.95;2.80;;;;;;;15.13;87.48;100578.22;1660680;85;21146;-66
2021/05/30 03:36:13;;;;;;;8.08;2.58;;;;;;;15.23;86.78;100573.66;1650882;85;21133;-67
2021/05/30 03:38:37;;;;;;;4.10;2.90;;;;;;;15.32;86.24;100575.81;1632940;86;21094;-66
2021/05/30 03:41:06;;;;;;;4.10;2.75;;;;;;;15.42;85.68;100571.64;1697100;84;21117;-67
2021/05/30 03:43:33;;;;;;;3.50;2.55;;;;;;;15.48;85.34;100574.47;1670792;84;22227;-67
2021/05/30 03:45:59;;;;;;;7.50;2.52;;;;;;;15.57;84.92;100572.56;1670350;84;21519;-68
2021/05/30 03:48:26;;;;;;;7.45;2.92;;;;;;;15.70;84.53;100569.15;1670809;85;21650;-67
2021/05/30 03:50:53;;;;;;;2.90;2.52;;;;;;;15.85;83.79;100576.81;1670353;84;21896;-67
2021/05/30 03:53:20;;;;;;;7.42;3.10;;;;;;;15.98;83.22;100580.53;1670607;84;21138;-67
2021/05/30 03:55:48;;;;;;;6.97;2.62;;;;;;;16.13;82.79;100581.92;1670520;84;21126;-68
2021/05/30 03:58:14;;;;;;;6.25;2.80;;;;;;;16.26;82.15;100589.69;1670270;84;21158;-70
2021/05/30 04:00:41;;;;;;;2.92;2.40;;;;;;;16.43;81.59;100599.92;1670625;84;21373;-69
2021/05/30 04:03:08;;;;;;;3.10;2.42;;;;;;;16.57;80.99;100602.64;1670068;85;21512;-68
2021/05/30 04:05:34;;;;;;;3.25;2.50;;;;;;;16.71;80.37;100603.13;1657490;84;21428;-68
2021/05/30 04:08:01;;;;;;;3.83;2.40;;;;;;;16.82;79.77;100601.09;1696433;84;21077;-69
2021/05/30 04:10:28;;;;;;;3.62;2.67;;;;;;;16.93;79.22;100603.61;1671214;84;21529;-69
2021/05/30 04:12:55;;;;;;;4.35;2.90;;;;;;;17.01;78.79;100612.13;1639622;85;21565;-69
2021/05/30 04:15:24;;;;;;;5.10;2.87;;;;;;;17.05;78.71;100609.61;1638087;87;21109;-68
2021/05/30 04:17:50;;;;;;;5.03;3.22;;;;;;;17.07;78.70;100604.95;1668510;84;21145;-68
2021/05/30 04:20:17;;;;;;;4.70;3.10;;;;;;;17.14;78.29;100615.80;1672293;84;21129;-68
2021/05/30 04:22:44;;;;;;;5.95;2.92;;;;;;;17.19;77.90;100606.00;1669582;85;21986;-68
2021/05/30 04:25:12;;;;;;;8.40;2.75;;;;;;;17.29;77.64;100607.63;1663408;86;21102;-69
2021/05/30 04:27:38;;;;;;;14.47;4.08;;;;;;;17.41;77.18;100600.05;1669085;85;21183;-68
2021/05/30 04:30:07;;;;;;;7.62;3.42;;;;;;;17.56;76.82;100598.62;1668286;84;21089;-69
2021/05/30 04:32:36;;;;;;;7.92;3.27;;;;;;;17.72;75.90;100607.97;1664092;86;21018;-70
2021/05/30 04:35:04;;;;;;;4.50;2.72;;;;;;;17.84;75.46;100608.98;1667193;84;21021;-70
2021/05/30 04:37:30;;;;;;;5.60;2.92;;;;;;;17.95;75.14;100606.39;1666993;84;21309;-68
2021/05/30 04:39:58;;;;;;;5.37;3.00;;;;;;;18.04;74.65;100612.59;1661414;85;21488;-70
2021/05/30 04:42:24;;;;;;;4.40;3.37;;;;;;;18.15;74.15;100609.13;1654741;86;21106;-70
2021/05/30 04:44:51;;;;;;;7.58;3.67;;;;;;;18.22;73.40;100612.27;1671949;85;21121;-70
2021/05/30 04:47:18;;;;;;;8.53;3.40;;;;;;;18.26;73.10;100612.45;1684286;84;21172;-70
2021/05/30 04:49:44;;;;;;;15.18;3.10;;;;;;;18.31;73.35;100617.06;1684191;84;21106;-70
2021/05/30 04:52:11;;;;;;;5.05;2.58;;;;;;;18.39;73.25;100619.72;1684198;83;21113;-72
2021/05/30 04:54:38;;;;;;;6.60;2.50;;;;;;;18.43;73.04;100619.87;1684316;83;21014;-69
2021/05/30 04:57:06;;;;;;;3.52;2.52;;;;;;;18.49;72.78;100620.83;1684091;85;21097;-69
2021/05/30 04:59:33;;;;;;;8.70;2.75;;;;;;;18.55;72.68;100616.78;1685255;84;21049;-69
2021/05/30 05:01:59;;;;;;;6.65;2.52;;;;;;;18.57;72.46;100606.72;1662841;84;21137;-69
2021/05/30 05:04:26;;;;;;;3.90;2.42;;;;;;;18.58;72.30;100607.94;1684250;83;21117;-69
2021/05/30 05:06:52;;;;;;;5.15;2.72;;;;;;;18.57;71.97;100602.14;1649263;85;21114;-69
2021/05/30 05:09:19;;;;;;;2.65;2.40;;;;;;;18.60;72.03;100607.85;1630551;86;21554;-68
2021/05/30 05:11:46;;;;;;;4.30;2.95;;;;;;;18.64;71.66;100611.19;1646225;86;21125;-69
2021/05/30 05:14:14;;;;;;;2.52;2.12;;;;;;;18.66;71.23;100610.59;1664478;86;21579;-69
2021/05/30 05:16:41;;;;;;;5.15;2.60;;;;;;;18.76;71.16;100612.53;1664774;86;21187;-69
2021/05/30 05:19:07;;;;;;;3.10;2.40;;;;;;;18.88;70.63;100620.28;1664563;86;21106;-69
2021/05/30 05:21:35;;;;;;;5.42;2.60;;;;;;;18.95;70.38;100621.22;1664604;86;21559;-67
2021/05/30 05:24:02;;;;;;;3.12;2.67;;;;;;;19.02;70.03;100618.46;1664446;86;21655;-67
2021/05/30 05:26:28;;;;;;;5.12;2.52;;;;;;;19.09;69.76;100622.97;1664919;86;21081;-68
2021/05/30 05:28:55;;;;;;;8.95;2.62;;;;;;;19.10;69.43;100621.98;1664487;86;21180;-67
2021/05/30 05:31:22;;;;;;;5.10;2.37;;;;;;;19.09;69.33;100626.53;1660994;86;21101;-68
2021/05/30 05:33:48;;;;;;;5.40;2.50;;;;;;;19.08;69.19;100624.80;1677297;84;21121;-69
2021/05/30 05:36:17;;;;;;;4.83;2.80;;;;;;;19.11;69.29;100628.64;1660924;86;21587;-68
2021/05/30 05:38:44;;;;;;;4.40;2.60;;;;;;;19.24;69.29;100631.83;1661423;84;21015;-68
2021/05/30 05:41:10;;;;;;;2.42;2.22;;;;;;;19.38;68.43;100634.41;1657112;84;21226;-68
2021/05/30 05:43:38;;;;;;;2.87;2.58;;;;;;;19.52;67.67;100632.48;1656416;85;21364;-68
2021/05/30 05:46:04;;;;;;;6.45;2.60;;;;;;;19.63;67.34;100628.49;1656532;85;21423;-68
2021/05/30 05:48:31;;;;;;;3.20;2.60;;;;;;;19.72;67.31;100638.66;1656647;86;21510;-68
2021/05/30 05:50:57;;;;;;;2.98;2.33;;;;;;;19.81;67.18;100640.33;1656169;86;21528;-69
2021/05/30 05:53:24;;;;;;;4.08;2.30;;;;;;;19.89;67.09;100637.40;1656462;85;21105;-67
2021/05/30 05:55:50;;;;;;;3.08;2.30;;;;;;;20.00;65.85;100642.02;1656249;85;21066;-67
2021/05/30 05:58:18;;;;;;;3.12;2.45;;;;;;;20.12;65.79;100635.27;1656483;86;21079;-67
2021/05/30 06:00:45;;;;;;;4.85;2.40;;;;;;;20.19;65.58;100629.72;1659741;84;21120;-67
2021/05/30 06:03:12;;;;;;;3.10;2.70;;;;;;;20.36;65.58;100631.62;1681628;84;21421;-67
2021/05/30 06:05:38;;;;;;;3.35;2.45;;;;;;;20.52;64.50;100625.83;1668602;85;21587;-68
2021/05/30 06:08:05;;;;;;;3.35;2.50;;;;;;;20.64;64.18;100630.79;1632933;87;21094;-67
2021/05/30 06:10:32;;;;;;;6.47;2.80;;;;;;;20.78;64.12;100631.92;1645780;84;21143;-69
2021/05/30 06:13:02;;;;;;;4.37;2.90;;;;;;;20.92;63.44;100631.35;1662770;86;21149;-70
2021/05/30 06:15:32;;;;;;;3.42;2.70;;;;;;;21.05;62.38;100633.44;1664126;86;21105;-68
2021/05/30 06:18:03;;;;;;;4.62;2.50;;;;;;;21.14;62.60;100634.55;1662787;86;21163;-63
2021/05/30 06:20:27;;;;;;;4.28;2.60;;;;;;;21.22;62.15;100637.53;1662671;86;21101;-68
2021/05/30 06:22:55;;;;;;;3.02;2.55;;;;;;;21.28;62.26;100634.77;1662771;86;21094;-68
2021/05/30 06:25:26;;;;;;;4.30;2.80;;;;;;;21.35;62.10;100629.20;1662967;86;21142;-70
2021/05/30 06:27:51;;;;;;;5.15;2.90;;;;;;;21.42;61.78;100637.23;1663213;86;22200;-69
2021/05/30 06:30:20;;;;;;;9.80;2.65;;;;;;;21.47;61.56;100632.77;1663102;86;21611;-69
2021/05/30 06:32:47;;;;;;;9.70;2.55;;;;;;;21.53;60.68;100634.09;1645827;84;21123;-68
2021/05/30 06:35:13;;;;;;;5.92;2.45;;;;;;;21.58;60.75;100633.23;1646199;86;21417;-68
2021/05/30 06:37:40;;;;;;;4.20;2.40;;;;;;;21.64;60.59;100635.92;1651065;86;21134;-68
2021/05/30 06:40:07;;;;;;;7.97;2.22;;;;;;;21.68;59.00;100638.30;1652606;84;21201;-68
2021/05/30 06:42:34;;;;;;;6.30;2.72;;;;;;;21.74;57.23;100641.88;1662180;85;21698;-68
2021/05/30 06:45:00;;;;;;;5.72;2.58;;;;;;;21.79;57.21;100641.49;1660599;86;21134;-69
2021/05/30 06:47:27;;;;;;;2.98;2.65;;;;;;;21.84;57.22;100650.66;1660539;85;21666;-69
2021/05/30 06:49:54;;;;;;;3.60;2.52;;;;;;;21.86;57.27;100646.79;1659785;85;21129;-69
2021/05/30 06:52:20;;;;;;;3.70;2.62;;;;;;;21.91;57.64;100654.59;1660031;85;21081;-68
2021/05/30 06:54:47;;;;;;;4.62;2.70;;;;;;;22.01;57.11;100647.37;1660055;86;21184;-70
2021/05/30 06:57:14;;;;;;;4.60;2.17;;;;;;;22.08;56.62;100644.11;1659944;86;21453;-70
2021/05/30 06:59:42;;;;;;;4.53;2.15;;;;;;;22.13;54.59;100647.30;1660220;86;21188;-70
2021/05/30 07:02:09;;;;;;;3.98;1.90;;;;;;;22.21;53.48;100642.03;1633749;85;21186;-68
2021/05/30 07:04:36;;;;;;;2.85;2.00;;;;;;;22.30;52.72;100639.89;1660310;85;21110;-69
2021/05/30 07:07:04;;;;;;;4.47;2.30;;;;;;;22.35;52.32;100639.98;1661603;85;21158;-68
2021/05/30 07:09:30;;;;;;;2.20;1.98;;;;;;;22.41;52.36;100635.34;1666925;84;21568;-68
2021/05/30 07:11:57;;;;;;;3.95;1.87;;;;;;;22.43;51.74;100650.61;1665418;85;21429;-69
2021/05/30 07:14:24;;;;;;;4.35;1.90;;;;;;;22.38;51.94;100641.08;1690904;83;21113;-68
2021/05/30 07:16:56;;;;;;;4.40;1.80;;;;;;;22.31;52.02;100641.63;1666111;84;21098;-68
2021/05/30 07:19:24;;;;;;;4.92;1.77;;;;;;;22.27;52.32;100645.62;1637582;87;21125;-68
2021/05/30 07:21:50;;;;;;;3.58;2.05;;;;;;;22.25;51.37;100643.53;1665837;85;21156;-68
2021/05/30 07:24:18;;;;;;;2.20;1.52;;;;;;;22.28;51.88;100640.53;1690519;83;21832;-70
2021/05/30 07:26:44;;;;;;;2.67;1.62;;;;;;;22.38;51.54;100649.27;1665793;86;21599;-67
2021/05/30 07:29:11;;;;;;;3.30;1.90;;;;;;;22.51;49.84;100654.08;1665668;84;21128;-68
2021/05/30 07:31:39;;;;;;;3.25;1.82;;;;;;;22.66;49.80;100651.86;1689986;83;21828;-67
2021/05/30 07:34:05;;;;;;;3.52;1.80;;;;;;;22.82;50.15;100658.19;1643532;86;21129;-68
2021/05/30 07:36:32;;;;;;;1.95;1.65;;;;;;;23.02;48.90;100656.92;1661689;86;21125;-68
2021/05/30 07:39:00;;;;;;;2.90;1.70;;;;;;;23.13;48.50;100650.00;1661982;86;21121;-67
2021/05/30 07:41:29;;;;;;;3.05;1.70;;;;;;;23.17;48.76;100650.08;1664084;85;21153;-67
2021/05/30 07:43:55;;;;;;;3.08;1.80;;;;;;;23.14;48.73;100654.95;1666417;85;21133;-68
2021/05/30 07:46:22;;;;;;;1.70;1.60;;;;;;;23.07;48.93;100656.52;1666400;84;21144;-68
2021/05/30 07:48:49;;;;;;;3.35;1.90;;;;;;;23.01;49.17;100649.72;1667573;85;21137;-69
2021/05/30 07:51:15;;;;;;;3.60;1.80;;;;;;;23.03;49.33;100654.06;1667296;85;21106;-69
2021/05/30 07:53:42;;;;;;;4.33;1.80;;;;;;;23.08;49.51;100652.26;1666980;85;21146;-69
2021/05/30 07:56:08;;;;;;;3.42;1.90;;;;;;;23.14;50.35;100654.95;1667083;85;21299;-68
2021/05/30 07:58:35;;;;;;;4.35;1.85;;;;;;;23.23;50.50;100652.77;1666957;85;21038;-69
2021/05/30 08:01:02;;;;;;;3.80;2.10;;;;;;;23.37;50.36;100649.30;1667123;84;21129;-68
2021/05/30 08:03:28;;;;;;;3.77;2.12;;;;;;;23.51;50.07;100645.28;1690521;83;21081;-68
2021/05/30 08:05:55;;;;;;;3.50;2.22;;;;;;;23.59;50.47;100647.68;1682752;83;21113;-69
2021/05/30 08:08:22;;;;;;;7.12;2.10;;;;;;;23.64;50.33;100645.90;1644856;85;21750;-69
2021/05/30 08:10:50;;;;;;;4.53;1.90;;;;;;;23.66;50.36;100649.36;1643969;86;21149;-69
2021/05/30 08:13:17;;;;;;;1.90;1.75;;;;;;;23.70;50.11;100652.16;1637019;87;21093;-68
2021/05/30 08:15:43;;;;;;;5.00;1.87;;;;;;;23.73;49.79;100655.98;1667189;85;21153;-68
2021/05/30 08:18:14;;;;;;;4.58;2.00;;;;;;;23.70;49.69;100654.05;1667430;85;21197;-68
2021/05/30 08:20:41;;;;;;;7.53;2.00;;;;;;;23.72;49.98;100656.98;1667036;85;22282;-69
2021/05/30 08:23:07;;;;;;;3.00;1.90;;;;;;;23.74;50.24;100664.55;1667094;85;21025;-68
2021/05/30 08:25:33;;;;;;;4.78;2.05;;;;;;;23.79;50.49;100671.50;1667218;84;21097;-67
2021/05/30 08:28:00;;;;;;;5.33;2.33;;;;;;;23.85;51.04;100675.02;1667253;84;21259;-68
2021/05/30 08:30:27;;;;;;;5.25;2.05;;;;;;;23.87;51.65;100676.63;1667033;85;21112;-68
2021/05/30 08:32:54;;;;;;;2.60;2.00;;;;;;;23.88;50.99;100682.45;1694187;83;21163;-67
2021/05/30 08:35:20;;;;;;;2.75;1.62;;;;;;;23.86;50.64;100683.59;1668030;84;21050;-70
2021/05/30 08:37:49;;;;;;;4.17;1.95;;;;;;;23.86;50.52;100679.48;1696751;83;21097;-68
2021/05/30 08:40:17;;;;;;;2.83;1.77;;;;;;;23.88;50.44;100680.20;1696872;84;47192;-69
2021/05/30 08:42:47;;;;;;;4.35;2.10;;;;;;;23.95;50.33;100675.88;1657771;85;21432;-69
2021/05/30 08:45:15;;;;;;;6.75;2.10;;;;;;;24.09;49.34;100675.13;1656613;85;21840;-68
2021/05/30 08:47:41;;;;;;;5.55;2.20;;;;;;;24.15;48.15;100679.53;1657027;86;21020;-68
2021/05/30 08:50:10;;;;;;;4.25;2.15;;;;;;;24.17;47.20;100684.85;1656711;85;21589;-68
2021/05/30 08:52:36;;;;;;;4.80;2.30;;;;;;;24.13;47.52;100683.42;1656950;85;21179;-68
2021/05/30 08:55:06;;;;;;;5.10;2.40;;;;;;;24.15;49.56;100689.61;1656621;85;22326;-68
2021/05/30 08:57:32;;;;;;;3.30;2.30;;;;;;;24.25;52.47;100695.97;1657827;85;21083;-68
2021/05/30 08:59:59;;;;;;;6.75;2.22;;;;;;;24.29;52.94;100691.92;1656807;85;22303;-69
2021/05/30 09:02:30;;;;;;;5.85;2.58;;;;;;;24.32;53.05;100688.89;1649993;86;21126;-70
2021/05/30 09:05:04;;;;;;;3.27;2.33;;;;;;;24.28;52.31;100698.41;1646023;86;21114;-69
2021/05/30 09:07:49;;;;;;;3.55;2.20;;;;;;;24.20;52.33;100688.67;1657978;85;21116;-68
2021/05/30 09:10:18;;;;;;;2.30;2.10;;;;;;;24.15;52.89;100680.91;1657290;85;21672;-67
2021/05/30 09:12:46;;;;;;;4.28;2.17;;;;;;;24.15;53.59;100686.88;1664648;86;21584;-68
2021/05/30 09:15:37;;;;;;;6.22;2.40;;;;;;;24.18;53.40;100682.47;1665210;86;21054;-70
2021/05/30 09:18:16;;;;;;;5.20;2.27;;;;;;;24.17;53.05;100680.25;1663885;86;21500;-68
2021/05/30 09:20:58;;;;;;;4.92;2.60;;;;;;;24.17;52.59;100688.47;1665339;84;21137;-68
2021/05/30 09:23:42;;;;;;;5.83;2.50;;;;;;;24.22;52.82;100684.42;1659511;85;21618;-72
2021/05/30 09:26:14;;;;;;;4.67;2.22;;;;;;;24.25;52.79;100690.48;1665872;86;21161;-73
2021/05/30 09:28:45;;;;;;;4.47;2.40;;;;;;;24.26;52.02;100684.49;1665668;86;21216;-66
2021/05/30 09:31:13;;;;;;;5.50;2.60;;;;;;;24.28;52.10;100686.58;1653391;84;21129;-66
2021/05/30 09:33:40;;;;;;;6.08;2.40;;;;;;;24.31;51.90;100687.16;1660803;86;21121;-71
2021/05/30 09:36:07;;;;;;;3.98;2.42;;;;;;;24.36;51.82;100687.23;1660688;85;21238;-68
2021/05/30 09:38:37;;;;;;;4.85;2.47;;;;;;;24.38;52.25;100685.20;1660529;85;21094;-69
2021/05/30 09:41:12;;;;;;;5.08;2.60;;;;;;;24.36;52.72;100696.81;1635302;85;21137;-69
2021/05/30 09:43:53;;;;;;;7.42;2.40;;;;;;;24.26;53.37;100696.33;1633497;87;21061;-69
2021/05/30 09:46:24;;;;;;;5.40;2.40;;;;;;;24.20;54.12;100686.45;1632478;87;21129;-70
2021/05/30 09:48:57;;;;;;;6.42;2.25;;;;;;;24.19;54.76;100685.56;1632394;86;21924;-70
2021/05/30 09:51:39;;;;;;;5.10;2.70;;;;;;;24.19;54.61;100682.83;1632022;87;21162;-70
2021/05/30 09:54:14;;;;;;;3.22;2.33;;;;;;;24.20;54.15;100675.49;1632218;87;21443;-68
2021/05/30 09:56:49;;;;;;;6.20;1.98;;;;;;;24.25;54.29;100671.31;1632242;87;21129;-71
2021/05/30 09:59:18;;;;;;;7.47;2.20;;;;;;;24.29;53.12;100680.09;1632298;87;21133;-68
2021/05/30 10:01:52;;;;;;;5.47;2.37;;;;;;;24.29;51.97;100669.13;1609851;87;21112;-68
2021/05/30 10:04:22;;;;;;;4.03;1.77;;;;;;;24.34;50.26;100685.14;1600841;89;21136;-70
2021/05/30 10:06:49;;;;;;;4.53;1.70;;;;;;;24.43;45.68;100693.88;1601970;89;21117;-70
2021/05/30 10:09:17;;;;;;;4.85;1.50;;;;;;;24.46;43.33;100699.06;1647676;86;21133;-68
2021/05/30 10:11:43;;;;;;;5.25;1.70;;;;;;;24.41;42.35;100697.23;1662797;84;21173;-69
2021/05/30 10:14:10;;;;;;;2.22;1.60;;;;;;;24.32;42.53;100697.11;1699669;84;21148;-68
2021/05/30 10:16:38;;;;;;;2.10;1.67;;;;;;;24.31;41.61;100690.39;1699351;83;21618;-69
2021/05/30 10:19:23;;;;;;;2.10;1.60;;;;;;;24.23;41.24;100697.11;1674748;84;21103;-69
2021/05/30 10:21:51;;;;;;;5.00;1.50;;;;;;;24.12;41.88;100691.27;1634014;86;21135;-68
2021/05/30 10:24:18;;;;;;;5.65;1.65;;;;;;;24.07;43.44;100686.74;1633786;86;21701;-70
2021/05/30 10:26:47;;;;;;;2.98;1.60;;;;;;;24.00;43.95;100688.66;1633432;84;21733;-69
2021/05/30 10:29:17;;;;;;;6.55;1.60;;;;;;;24.10;43.35;100690.55;1613708;86;21164;-69
2021/05/30 10:31:46;;;;;;;4.80;1.67;;;;;;;24.19;43.05;100691.05;1634762;86;21124;-69
2021/05/30 10:34:22;;;;;;;3.30;1.50;;;;;;;24.33;42.86;100689.77;1632921;86;21177;-67
2021/05/30 10:37:03;;;;;;;1.50;1.40;;;;;;;24.54;42.10;100686.84;1634795;86;20998;-69
2021/05/30 10:39:34;;;;;;;3.98;1.60;;;;;;;24.75;41.69;100686.67;1632767;86;21668;-68
2021/05/30 10:42:13;;;;;;;4.30;1.50;;;;;;;24.84;41.87;100689.03;1631224;86;22215;-68
2021/05/30 10:45:03;;;;;;;4.87;1.85;;;;;;;24.91;42.13;100687.09;1631180;87;21655;-67
2021/05/30 10:47:52;;;;;;;6.28;1.70;;;;;;;24.98;42.66;100684.09;1631750;86;21264;-69
2021/05/30 10:50:20;;;;;;;2.40;1.87;;;;;;;25.05;41.93;100685.21;1631503;86;21168;-69
2021/05/30 10:52:47;;;;;;;5.12;1.50;;;;;;;25.11;41.36;100683.26;1631613;87;21140;-68
2021/05/30 10:55:20;;;;;;;5.53;1.77;;;;;;;25.16;41.28;100678.17;1632105;86;21129;-68
2021/05/30 10:57:50;;;;;;;3.62;1.50;;;;;;;25.13;40.74;100680.34;1631749;86;21563;-69
2021/05/30 11:00:25;;;;;;;4.72;2.30;;;;;;;25.11;41.16;100680.52;1638974;86;21649;-69
2021/05/30 11:03:07;;;;;;;3.72;1.87;;;;;;;25.12;41.50;100689.09;1665854;84;21125;-69
2021/05/30 11:05:44;;;;;;;5.78;1.90;;;;;;;25.02;40.72;100690.51;1662860;84;21585;-69
2021/05/30 11:08:35;;;;;;;6.70;2.33;;;;;;;24.87;41.44;100688.77;1656358;86;21175;-69
2021/05/30 11:11:24;;;;;;;3.08;1.90;;;;;;;24.80;43.18;100694.46;1661596;85;21181;-70
2021/05/30 11:14:03;;;;;;;2.83;1.80;;;;;;;24.72;44.81;100690.20;1665644;84;21351;-70
2021/05/30 11:16:32;;;;;;;1.90;1.42;;;;;;;24.55;44.58;100687.20;1665079;84;21574;-70
2021/05/30 11:19:02;;;;;;;4.08;1.77;;;;;;;24.45;43.24;100680.36;1666087;86;21117;-68
2021/05/30 11:21:41;;;;;;;4.35;1.95;;;;;;;24.48;43.75;100691.55;1665621;86;21078;-70
2021/05/30 11:24:17;;;;;;;4.75;1.72;;;;;;;24.67;43.53;100691.16;1665973;86;21129;-70
2021/05/30 11:27:04;;;;;;;;;;;;;;;24.78;41.91;100688.27;1668099;86;21177;-69
2021/05/30 11:29:31;;;;;;;2.95;1.80;;;;;;;24.83;41.76;100683.19;1660921;86;20272;-68
2021/05/30 11:32:02;;;;;;;3.47;2.00;;;;;;;24.89;41.95;100679.88;1632282;87;21129;-70